sensor_id;sensor_type;location;lat;lon;timestamp;temperature;humidity
73586;DHT22;61865;50.232;18.614;2022-08-19T00:01:27;21.10;99.90
73586;DHT22;61865;50.232;18.614;2022-08-19T00:03:51;21.00;99.90
73586;DHT22;61865;50.232;18.614;2022-08-19T00:06:13;21.00;99.90
73586;DHT22;61865;50.232;18.614;2022-08-19T00:08:35;21.00;99.90
73586;DHT22;61865;50.232;18.614;2022-08-19T00:10:57;20.90;99.90
73586;DHT22;61865;50.232;18.614;2022-08-19T00:13:19;20.80;99.90
73586;DHT22;61865;50.232;18.614;2022-08-19T00:15:41;20.80;99.90
73586;DHT22;61865;50.232;18.614;2022-08-19T00:18:05;20.70;99.90
73586;DHT22;61865;50.232;18.614;2022-08-19T00:20:28;20.60;99.90
73586;DHT22;61865;50.232;18.614;2022-08-19T00:22:50;20.50;99.90
73586;DHT22;61865;50.232;18.614;2022-08-19T00:25:12;20.50;99.90
73586;DHT22;61865;50.232;18.614;2022-08-19T00:27:34;20.50;99.90
73586;DHT22;61865;50.232;18.614;2022-08-19T00:29:56;20.40;99.90
73586;DHT22;61865;50.232;18.614;2022-08-19T00:32:19;20.40;99.90
73586;DHT22;61865;50.232;18.614;2022-08-19T00:34:41;20.40;99.90
73586;DHT22;61865;50.232;18.614;2022-08-19T00:37:05;20.30;99.90
73586;DHT22;61865;50.232;18.614;2022-08-19T00:39:27;20.30;99.90
73586;DHT22;61865;50.232;18.614;2022-08-19T00:41:50;20.20;99.90
73586;DHT22;61865;50.232;18.614;2022-08-19T00:44:15;20.20;99.90
73586;DHT22;61865;50.232;18.614;2022-08-19T00:46:42;20.20;99.90
73586;DHT22;61865;50.232;18.614;2022-08-19T00:49:10;20.10;99.90
73586;DHT22;61865;50.232;18.614;2022-08-19T00:51:34;20.10;99.90
73586;DHT22;61865;50.232;18.614;2022-08-19T00:53:59;20.00;99.90
73586;DHT22;61865;50.232;18.614;2022-08-19T00:56:22;20.00;99.90
73586;DHT22;61865;50.232;18.614;2022-08-19T00:58:44;19.90;99.90
73586;DHT22;61865;50.232;18.614;2022-08-19T01:01:06;19.90;99.90
73586;DHT22;61865;50.232;18.614;2022-08-19T01:03:28;19.90;99.90
73586;DHT22;61865;50.232;18.614;2022-08-19T01:05:52;19.80;99.90
73586;DHT22;61865;50.232;18.614;2022-08-19T01:08:17;19.80;99.90
73586;DHT22;61865;50.232;18.614;2022-08-19T01:10:44;19.80;99.90
73586;DHT22;61865;50.232;18.614;2022-08-19T01:13:07;19.70;99.90
73586;DHT22;61865;50.232;18.614;2022-08-19T01:15:31;19.70;99.90
73586;DHT22;61865;50.232;18.614;2022-08-19T01:17:55;19.70;99.90
73586;DHT22;61865;50.232;18.614;2022-08-19T01:20:20;19.70;99.90
73586;DHT22;61865;50.232;18.614;2022-08-19T01:22:46;19.70;99.90
73586;DHT22;61865;50.232;18.614;2022-08-19T01:25:08;19.60;99.90
73586;DHT22;61865;50.232;18.614;2022-08-19T01:27:37;19.60;99.90
73586;DHT22;61865;50.232;18.614;2022-08-19T01:30:00;19.60;99.90
73586;DHT22;61865;50.232;18.614;2022-08-19T01:32:22;19.60;99.90
73586;DHT22;61865;50.232;18.614;2022-08-19T01:34:43;19.50;99.90
73586;DHT22;61865;50.232;18.614;2022-08-19T01:37:10;19.60;99.90
73586;DHT22;61865;50.232;18.614;2022-08-19T01:39:34;19.60;99.90
73586;DHT22;61865;50.232;18.614;2022-08-19T01:41:56;19.60;99.90
73586;DHT22;61865;50.232;18.614;2022-08-19T01:44:18;19.60;99.90
73586;DHT22;61865;50.232;18.614;2022-08-19T01:46:41;19.60;99.90
73586;DHT22;61865;50.232;18.614;2022-08-19T01:49:04;19.60;99.90
73586;DHT22;61865;50.232;18.614;2022-08-19T01:51:27;19.50;99.90
73586;DHT22;61865;50.232;18.614;2022-08-19T01:53:49;19.50;99.90
73586;DHT22;61865;50.232;18.614;2022-08-19T01:56:13;19.50;99.90
73586;DHT22;61865;50.232;18.614;2022-08-19T01:58:38;19.40;99.90
73586;DHT22;61865;50.232;18.614;2022-08-19T02:01:02;19.40;99.90
73586;DHT22;61865;50.232;18.614;2022-08-19T02:03:24;19.40;99.90
73586;DHT22;61865;50.232;18.614;2022-08-19T02:05:45;19.40;99.90
73586;DHT22;61865;50.232;18.614;2022-08-19T02:08:08;19.30;99.90
73586;DHT22;61865;50.232;18.614;2022-08-19T02:10:30;19.30;99.90
73586;DHT22;61865;50.232;18.614;2022-08-19T02:12:54;19.20;99.90
73586;DHT22;61865;50.232;18.614;2022-08-19T02:15:16;19.20;99.90
73586;DHT22;61865;50.232;18.614;2022-08-19T02:17:39;19.10;99.90
73586;DHT22;61865;50.232;18.614;2022-08-19T02:20:02;19.10;99.90
73586;DHT22;61865;50.232;18.614;2022-08-19T02:22:24;19.10;99.90
73586;DHT22;61865;50.232;18.614;2022-08-19T02:24:47;19.10;99.90
73586;DHT22;61865;50.232;18.614;2022-08-19T02:27:09;19.10;99.90
73586;DHT22;61865;50.232;18.614;2022-08-19T02:29:32;19.10;99.90
73586;DHT22;61865;50.232;18.614;2022-08-19T02:31:54;19.00;99.90
73586;DHT22;61865;50.232;18.614;2022-08-19T02:34:16;19.00;99.90
73586;DHT22;61865;50.232;18.614;2022-08-19T02:36:38;19.00;99.90
73586;DHT22;61865;50.232;18.614;2022-08-19T02:39:00;19.00;99.90
73586;DHT22;61865;50.232;18.614;2022-08-19T02:41:23;18.90;99.90
73586;DHT22;61865;50.232;18.614;2022-08-19T02:43:46;18.90;99.90
73586;DHT22;61865;50.232;18.614;2022-08-19T02:46:14;18.90;99.90
73586;DHT22;61865;50.232;18.614;2022-08-19T02:48:38;18.90;99.90
73586;DHT22;61865;50.232;18.614;2022-08-19T02:50:59;18.80;99.90
73586;DHT22;61865;50.232;18.614;2022-08-19T02:53:22;18.80;99.90
73586;DHT22;61865;50.232;18.614;2022-08-19T02:55:46;18.70;99.90
73586;DHT22;61865;50.232;18.614;2022-08-19T02:58:08;18.70;99.90
73586;DHT22;61865;50.232;18.614;2022-08-19T03:00:29;18.60;99.90
73586;DHT22;61865;50.232;18.614;2022-08-19T03:02:53;18.60;99.90
73586;DHT22;61865;50.232;18.614;2022-08-19T03:05:16;18.60;99.90
73586;DHT22;61865;50.232;18.614;2022-08-19T03:07:38;18.60;99.90
73586;DHT22;61865;50.232;18.614;2022-08-19T03:10:00;18.50;99.90
73586;DHT22;61865;50.232;18.614;2022-08-19T03:12:22;18.50;99.90
73586;DHT22;61865;50.232;18.614;2022-08-19T03:14:43;18.50;99.90
73586;DHT22;61865;50.232;18.614;2022-08-19T03:17:06;18.40;99.90
73586;DHT22;61865;50.232;18.614;2022-08-19T03:19:30;18.40;99.90
73586;DHT22;61865;50.232;18.614;2022-08-19T03:21:52;18.40;99.90
73586;DHT22;61865;50.232;18.614;2022-08-19T03:24:16;18.40;99.90
73586;DHT22;61865;50.232;18.614;2022-08-19T03:26:40;18.30;99.90
73586;DHT22;61865;50.232;18.614;2022-08-19T03:29:03;18.30;99.90
73586;DHT22;61865;50.232;18.614;2022-08-19T03:31:26;18.30;99.90
73586;DHT22;61865;50.232;18.614;2022-08-19T03:33:49;18.20;99.90
73586;DHT22;61865;50.232;18.614;2022-08-19T03:36:14;18.20;99.90
73586;DHT22;61865;50.232;18.614;2022-08-19T03:38:37;18.20;99.90
73586;DHT22;61865;50.232;18.614;2022-08-19T03:41:03;18.20;99.90
73586;DHT22;61865;50.232;18.614;2022-08-19T03:43:26;18.20;99.90
73586;DHT22;61865;50.232;18.614;2022-08-19T03:45:49;18.20;99.90
73586;DHT22;61865;50.232;18.614;2022-08-19T03:48:11;18.20;99.90
73586;DHT22;61865;50.232;18.614;2022-08-19T03:50:38;18.20;99.90
73586;DHT22;61865;50.232;18.614;2022-08-19T03:53:01;18.20;99.90
73586;DHT22;61865;50.232;18.614;2022-08-19T03:55:23;18.30;99.90
73586;DHT22;61865;50.232;18.614;2022-08-19T03:57:45;18.30;99.90
73586;DHT22;61865;50.232;18.614;2022-08-19T04:00:09;18.30;99.90
73586;DHT22;61865;50.232;18.614;2022-08-19T04:02:32;18.30;99.90
73586;DHT22;61865;50.232;18.614;2022-08-19T04:04:54;18.30;99.90
73586;DHT22;61865;50.232;18.614;2022-08-19T04:07:16;18.30;99.90
73586;DHT22;61865;50.232;18.614;2022-08-19T04:09:43;18.40;99.90
73586;DHT22;61865;50.232;18.614;2022-08-19T04:12:06;18.40;99.90
73586;DHT22;61865;50.232;18.614;2022-08-19T04:14:29;18.50;99.90
73586;DHT22;61865;50.232;18.614;2022-08-19T04:16:52;18.60;99.90
73586;DHT22;61865;50.232;18.614;2022-08-19T04:19:15;18.70;99.90
73586;DHT22;61865;50.232;18.614;2022-08-19T04:21:38;18.90;99.90
73586;DHT22;61865;50.232;18.614;2022-08-19T04:23:59;19.00;99.90
73586;DHT22;61865;50.232;18.614;2022-08-19T04:26:26;19.10;99.90
73586;DHT22;61865;50.232;18.614;2022-08-19T04:28:48;19.20;99.90
73586;DHT22;61865;50.232;18.614;2022-08-19T04:31:14;19.30;99.90
73586;DHT22;61865;50.232;18.614;2022-08-19T04:33:36;19.40;99.90
73586;DHT22;61865;50.232;18.614;2022-08-19T04:35:58;19.60;99.90
73586;DHT22;61865;50.232;18.614;2022-08-19T04:38:21;19.60;99.90
73586;DHT22;61865;50.232;18.614;2022-08-19T04:40:46;19.70;99.90
73586;DHT22;61865;50.232;18.614;2022-08-19T04:43:28;19.80;99.90
73586;DHT22;61865;50.232;18.614;2022-08-19T04:45:50;19.90;99.90
73586;DHT22;61865;50.232;18.614;2022-08-19T04:48:13;20.00;99.90
73586;DHT22;61865;50.232;18.614;2022-08-19T04:50:35;20.10;99.90
73586;DHT22;61865;50.232;18.614;2022-08-19T04:52:56;20.20;99.90
73586;DHT22;61865;50.232;18.614;2022-08-19T04:55:18;20.30;99.90
73586;DHT22;61865;50.232;18.614;2022-08-19T04:57:40;20.40;99.90
73586;DHT22;61865;50.232;18.614;2022-08-19T05:00:04;20.60;99.90
73586;DHT22;61865;50.232;18.614;2022-08-19T05:02:27;20.70;99.90
73586;DHT22;61865;50.232;18.614;2022-08-19T05:04:49;20.80;99.90
73586;DHT22;61865;50.232;18.614;2022-08-19T05:07:11;20.90;99.90
73586;DHT22;61865;50.232;18.614;2022-08-19T05:09:34;21.00;99.90
73586;DHT22;61865;50.232;18.614;2022-08-19T05:11:56;21.10;99.90
73586;DHT22;61865;50.232;18.614;2022-08-19T05:14:18;21.20;99.90
73586;DHT22;61865;50.232;18.614;2022-08-19T05:16:42;21.30;99.90
73586;DHT22;61865;50.232;18.614;2022-08-19T05:19:04;21.40;99.90
73586;DHT22;61865;50.232;18.614;2022-08-19T05:21:44;21.40;99.90
73586;DHT22;61865;50.232;18.614;2022-08-19T05:24:23;21.60;99.90
73586;DHT22;61865;50.232;18.614;2022-08-19T05:26:48;21.70;99.90
73586;DHT22;61865;50.232;18.614;2022-08-19T05:29:10;21.80;99.90
73586;DHT22;61865;50.232;18.614;2022-08-19T05:31:32;21.80;99.90
73586;DHT22;61865;50.232;18.614;2022-08-19T05:33:56;21.90;99.90
73586;DHT22;61865;50.232;18.614;2022-08-19T05:36:19;22.10;99.90
73586;DHT22;61865;50.232;18.614;2022-08-19T05:38:41;22.30;99.90
73586;DHT22;61865;50.232;18.614;2022-08-19T05:41:07;22.50;99.90
73586;DHT22;61865;50.232;18.614;2022-08-19T05:43:29;22.60;99.90
73586;DHT22;61865;50.232;18.614;2022-08-19T05:45:51;22.80;99.90
73586;DHT22;61865;50.232;18.614;2022-08-19T05:48:13;23.00;99.90
73586;DHT22;61865;50.232;18.614;2022-08-19T05:50:40;23.20;99.90
73586;DHT22;61865;50.232;18.614;2022-08-19T05:53:02;23.40;99.90
73586;DHT22;61865;50.232;18.614;2022-08-19T05:55:24;23.50;99.90
73586;DHT22;61865;50.232;18.614;2022-08-19T05:57:47;23.70;99.90
73586;DHT22;61865;50.232;18.614;2022-08-19T06:00:10;23.90;98.80
73586;DHT22;61865;50.232;18.614;2022-08-19T06:02:32;24.00;98.50
73586;DHT22;61865;50.232;18.614;2022-08-19T06:04:55;24.10;95.50
73586;DHT22;61865;50.232;18.614;2022-08-19T06:07:19;24.30;92.50
73586;DHT22;61865;50.232;18.614;2022-08-19T06:09:41;24.30;88.40
73586;DHT22;61865;50.232;18.614;2022-08-19T06:12:03;24.50;86.60
73586;DHT22;61865;50.232;18.614;2022-08-19T06:14:28;24.60;84.50
73586;DHT22;61865;50.232;18.614;2022-08-19T06:16:50;24.80;82.90
73586;DHT22;61865;50.232;18.614;2022-08-19T06:19:14;24.90;82.70
73586;DHT22;61865;50.232;18.614;2022-08-19T06:21:38;25.00;80.30
73586;DHT22;61865;50.232;18.614;2022-08-19T06:24:03;25.10;78.50
73586;DHT22;61865;50.232;18.614;2022-08-19T06:26:25;25.20;79.60
73586;DHT22;61865;50.232;18.614;2022-08-19T06:28:48;25.30;79.20
73586;DHT22;61865;50.232;18.614;2022-08-19T06:31:10;25.50;78.40
73586;DHT22;61865;50.232;18.614;2022-08-19T06:33:34;25.70;76.00
73586;DHT22;61865;50.232;18.614;2022-08-19T06:35:56;25.80;74.00
73586;DHT22;61865;50.232;18.614;2022-08-19T06:38:18;25.90;73.00
73586;DHT22;61865;50.232;18.614;2022-08-19T06:40:44;26.10;70.20
73586;DHT22;61865;50.232;18.614;2022-08-19T06:43:06;26.30;68.30
73586;DHT22;61865;50.232;18.614;2022-08-19T06:45:28;26.30;68.90
73586;DHT22;61865;50.232;18.614;2022-08-19T06:47:50;26.40;66.50
73586;DHT22;61865;50.232;18.614;2022-08-19T06:50:14;26.60;67.90
73586;DHT22;61865;50.232;18.614;2022-08-19T06:52:36;26.70;67.70
73586;DHT22;61865;50.232;18.614;2022-08-19T06:55:00;26.90;66.70
73586;DHT22;61865;50.232;18.614;2022-08-19T06:57:23;27.00;65.40
73586;DHT22;61865;50.232;18.614;2022-08-19T06:59:46;27.00;66.30
73586;DHT22;61865;50.232;18.614;2022-08-19T07:02:08;27.00;65.50
73586;DHT22;61865;50.232;18.614;2022-08-19T07:04:31;27.00;65.90
73586;DHT22;61865;50.232;18.614;2022-08-19T07:06:57;27.10;66.40
73586;DHT22;61865;50.232;18.614;2022-08-19T07:09:19;27.30;65.40
73586;DHT22;61865;50.232;18.614;2022-08-19T07:11:43;27.30;64.00
73586;DHT22;61865;50.232;18.614;2022-08-19T07:14:07;27.40;64.20
73586;DHT22;61865;50.232;18.614;2022-08-19T07:16:29;27.50;64.50
73586;DHT22;61865;50.232;18.614;2022-08-19T07:18:51;27.60;66.00
73586;DHT22;61865;50.232;18.614;2022-08-19T07:21:15;27.80;64.10
73586;DHT22;61865;50.232;18.614;2022-08-19T07:23:37;27.90;63.40
73586;DHT22;61865;50.232;18.614;2022-08-19T07:26:04;27.90;62.30
73586;DHT22;61865;50.232;18.614;2022-08-19T07:28:27;28.00;60.10
73586;DHT22;61865;50.232;18.614;2022-08-19T07:30:50;28.00;60.50
73586;DHT22;61865;50.232;18.614;2022-08-19T07:33:12;28.10;59.70
73586;DHT22;61865;50.232;18.614;2022-08-19T07:35:34;28.10;59.80
73586;DHT22;61865;50.232;18.614;2022-08-19T07:37:56;28.20;59.30
73586;DHT22;61865;50.232;18.614;2022-08-19T07:40:17;28.30;59.70
73586;DHT22;61865;50.232;18.614;2022-08-19T07:42:39;28.30;59.70
73586;DHT22;61865;50.232;18.614;2022-08-19T07:45:04;28.40;58.60
73586;DHT22;61865;50.232;18.614;2022-08-19T07:47:27;28.40;58.90
73586;DHT22;61865;50.232;18.614;2022-08-19T07:49:50;28.50;58.10
73586;DHT22;61865;50.232;18.614;2022-08-19T07:52:12;28.60;58.60
73586;DHT22;61865;50.232;18.614;2022-08-19T07:54:37;28.70;58.50
73586;DHT22;61865;50.232;18.614;2022-08-19T07:56:59;28.70;57.00
73586;DHT22;61865;50.232;18.614;2022-08-19T07:59:22;28.80;55.90
73586;DHT22;61865;50.232;18.614;2022-08-19T08:01:44;28.80;55.30
73586;DHT22;61865;50.232;18.614;2022-08-19T08:04:08;28.90;55.20
73586;DHT22;61865;50.232;18.614;2022-08-19T08:06:47;28.80;56.70
73586;DHT22;61865;50.232;18.614;2022-08-19T08:09:28;28.80;55.20
73586;DHT22;61865;50.232;18.614;2022-08-19T08:11:53;28.90;55.20
73586;DHT22;61865;50.232;18.614;2022-08-19T08:14:17;29.00;55.80
73586;DHT22;61865;50.232;18.614;2022-08-19T08:16:39;29.00;55.40
73586;DHT22;61865;50.232;18.614;2022-08-19T08:19:03;29.00;55.20
73586;DHT22;61865;50.232;18.614;2022-08-19T08:21:27;29.00;55.00
73586;DHT22;61865;50.232;18.614;2022-08-19T08:23:49;29.10;55.80
73586;DHT22;61865;50.232;18.614;2022-08-19T08:26:12;29.20;55.70
73586;DHT22;61865;50.232;18.614;2022-08-19T08:28:34;29.30;54.70
73586;DHT22;61865;50.232;18.614;2022-08-19T08:30:58;29.50;55.80
73586;DHT22;61865;50.232;18.614;2022-08-19T08:33:23;29.60;54.70
73586;DHT22;61865;50.232;18.614;2022-08-19T08:35:45;29.80;53.60
73586;DHT22;61865;50.232;18.614;2022-08-19T08:38:08;30.00;54.50
73586;DHT22;61865;50.232;18.614;2022-08-19T08:40:37;30.10;53.60
73586;DHT22;61865;50.232;18.614;2022-08-19T08:43:03;30.20;53.20
73586;DHT22;61865;50.232;18.614;2022-08-19T08:45:27;30.10;52.30
73586;DHT22;61865;50.232;18.614;2022-08-19T08:47:52;30.20;52.60
73586;DHT22;61865;50.232;18.614;2022-08-19T08:50:20;30.50;51.30
73586;DHT22;61865;50.232;18.614;2022-08-19T08:52:46;30.60;50.40
73586;DHT22;61865;50.232;18.614;2022-08-19T08:55:12;30.80;50.70
73586;DHT22;61865;50.232;18.614;2022-08-19T08:57:36;31.00;50.90
73586;DHT22;61865;50.232;18.614;2022-08-19T09:00:03;31.20;50.70
73586;DHT22;61865;50.232;18.614;2022-08-19T09:02:26;31.50;49.90
73586;DHT22;61865;50.232;18.614;2022-08-19T09:04:48;31.60;49.20
73586;DHT22;61865;50.232;18.614;2022-08-19T09:07:21;31.80;50.10
73586;DHT22;61865;50.232;18.614;2022-08-19T09:09:49;32.00;48.90
73586;DHT22;61865;50.232;18.614;2022-08-19T09:12:22;32.20;48.40
73586;DHT22;61865;50.232;18.614;2022-08-19T09:14:49;32.30;48.10
73586;DHT22;61865;50.232;18.614;2022-08-19T09:17:12;32.10;47.90
73586;DHT22;61865;50.232;18.614;2022-08-19T09:19:35;32.20;47.70
73586;DHT22;61865;50.232;18.614;2022-08-19T09:21:57;32.30;48.60
73586;DHT22;61865;50.232;18.614;2022-08-19T09:24:21;32.50;47.90
73586;DHT22;61865;50.232;18.614;2022-08-19T09:26:42;32.70;48.10
73586;DHT22;61865;50.232;18.614;2022-08-19T09:29:07;32.90;47.50
73586;DHT22;61865;50.232;18.614;2022-08-19T09:31:29;32.90;48.30
73586;DHT22;61865;50.232;18.614;2022-08-19T09:33:53;33.10;47.00
73586;DHT22;61865;50.232;18.614;2022-08-19T09:36:19;33.00;47.00
73586;DHT22;61865;50.232;18.614;2022-08-19T09:38:42;32.90;47.50
73586;DHT22;61865;50.232;18.614;2022-08-19T09:41:06;32.80;47.60
73586;DHT22;61865;50.232;18.614;2022-08-19T09:43:28;32.60;47.10
73586;DHT22;61865;50.232;18.614;2022-08-19T09:45:53;32.70;46.60
73586;DHT22;61865;50.232;18.614;2022-08-19T09:48:15;33.00;45.70
73586;DHT22;61865;50.232;18.614;2022-08-19T09:50:37;33.30;44.50
73586;DHT22;61865;50.232;18.614;2022-08-19T09:52:59;33.50;43.70
73586;DHT22;61865;50.232;18.614;2022-08-19T09:55:21;33.70;43.70
73586;DHT22;61865;50.232;18.614;2022-08-19T09:57:43;33.50;44.40
73586;DHT22;61865;50.232;18.614;2022-08-19T10:00:07;33.60;45.10
73586;DHT22;61865;50.232;18.614;2022-08-19T10:02:31;33.60;45.90
73586;DHT22;61865;50.232;18.614;2022-08-19T10:04:53;33.40;45.20
73586;DHT22;61865;50.232;18.614;2022-08-19T10:07:33;33.20;46.00
73586;DHT22;61865;50.232;18.614;2022-08-19T10:09:55;32.90;45.70
73586;DHT22;61865;50.232;18.614;2022-08-19T10:12:17;32.90;46.50
73586;DHT22;61865;50.232;18.614;2022-08-19T10:14:39;33.00;44.70
73586;DHT22;61865;50.232;18.614;2022-08-19T10:17:01;32.70;45.70
73586;DHT22;61865;50.232;18.614;2022-08-19T10:19:25;32.70;45.40
73586;DHT22;61865;50.232;18.614;2022-08-19T10:21:48;32.60;46.10
73586;DHT22;61865;50.232;18.614;2022-08-19T10:24:10;32.60;45.90
73586;DHT22;61865;50.232;18.614;2022-08-19T10:26:34;32.90;44.80
73586;DHT22;61865;50.232;18.614;2022-08-19T10:28:57;33.10;45.30
73586;DHT22;61865;50.232;18.614;2022-08-19T10:31:21;33.40;45.00
73586;DHT22;61865;50.232;18.614;2022-08-19T10:33:43;33.50;44.20
73586;DHT22;61865;50.232;18.614;2022-08-19T10:36:10;33.60;44.90
73586;DHT22;61865;50.232;18.614;2022-08-19T10:38:32;33.50;44.60
73586;DHT22;61865;50.232;18.614;2022-08-19T10:40:54;33.40;44.70
73586;DHT22;61865;50.232;18.614;2022-08-19T10:43:16;33.60;45.40
73586;DHT22;61865;50.232;18.614;2022-08-19T10:45:38;33.60;44.30
73586;DHT22;61865;50.232;18.614;2022-08-19T10:48:00;33.50;42.80
73586;DHT22;61865;50.232;18.614;2022-08-19T10:50:22;33.40;43.10
73586;DHT22;61865;50.232;18.614;2022-08-19T10:53:06;33.30;43.00
73586;DHT22;61865;50.232;18.614;2022-08-19T10:55:28;33.60;43.10
73586;DHT22;61865;50.232;18.614;2022-08-19T10:58:12;33.80;41.70
73586;DHT22;61865;50.232;18.614;2022-08-19T11:00:34;34.00;41.30
73586;DHT22;61865;50.232;18.614;2022-08-19T11:02:57;34.10;42.10
73586;DHT22;61865;50.232;18.614;2022-08-19T11:05:19;34.10;42.10
73586;DHT22;61865;50.232;18.614;2022-08-19T11:07:42;34.10;41.00
73586;DHT22;61865;50.232;18.614;2022-08-19T11:10:10;33.90;40.40
73586;DHT22;61865;50.232;18.614;2022-08-19T11:12:32;33.90;40.90
73586;DHT22;61865;50.232;18.614;2022-08-19T11:14:54;33.90;40.60
73586;DHT22;61865;50.232;18.614;2022-08-19T11:17:16;33.90;41.10
73586;DHT22;61865;50.232;18.614;2022-08-19T11:19:38;33.80;41.40
73586;DHT22;61865;50.232;18.614;2022-08-19T11:22:00;34.00;41.80
73586;DHT22;61865;50.232;18.614;2022-08-19T11:24:24;34.10;40.20
73586;DHT22;61865;50.232;18.614;2022-08-19T11:26:50;34.20;39.90
73586;DHT22;61865;50.232;18.614;2022-08-19T11:29:13;34.00;40.40
73586;DHT22;61865;50.232;18.614;2022-08-19T11:31:35;33.80;40.00
73586;DHT22;61865;50.232;18.614;2022-08-19T11:34:01;33.70;40.90
73586;DHT22;61865;50.232;18.614;2022-08-19T11:36:23;33.80;40.20
73586;DHT22;61865;50.232;18.614;2022-08-19T11:38:45;33.90;39.80
73586;DHT22;61865;50.232;18.614;2022-08-19T11:41:08;34.00;39.70
73586;DHT22;61865;50.232;18.614;2022-08-19T11:43:32;34.10;39.80
73586;DHT22;61865;50.232;18.614;2022-08-19T11:45:53;34.10;40.20
73586;DHT22;61865;50.232;18.614;2022-08-19T11:48:16;34.40;39.20
73586;DHT22;61865;50.232;18.614;2022-08-19T11:50:42;34.40;39.40
73586;DHT22;61865;50.232;18.614;2022-08-19T11:53:04;34.60;38.90
73586;DHT22;61865;50.232;18.614;2022-08-19T11:55:26;34.60;38.60
73586;DHT22;61865;50.232;18.614;2022-08-19T11:57:48;34.80;38.10
73586;DHT22;61865;50.232;18.614;2022-08-19T12:00:13;34.90;38.00
73586;DHT22;61865;50.232;18.614;2022-08-19T12:02:35;34.80;37.90
73586;DHT22;61865;50.232;18.614;2022-08-19T12:04:57;34.70;38.80
73586;DHT22;61865;50.232;18.614;2022-08-19T12:07:19;34.70;38.10
73586;DHT22;61865;50.232;18.614;2022-08-19T12:09:40;34.70;38.10
73586;DHT22;61865;50.232;18.614;2022-08-19T12:12:03;34.70;38.60
73586;DHT22;61865;50.232;18.614;2022-08-19T12:14:25;34.70;38.60
73586;DHT22;61865;50.232;18.614;2022-08-19T12:16:49;34.70;38.90
73586;DHT22;61865;50.232;18.614;2022-08-19T12:19:11;35.00;39.40
73586;DHT22;61865;50.232;18.614;2022-08-19T12:21:35;34.90;37.90
73586;DHT22;61865;50.232;18.614;2022-08-19T12:23:59;34.80;38.30
73586;DHT22;61865;50.232;18.614;2022-08-19T12:26:21;34.90;38.00
73586;DHT22;61865;50.232;18.614;2022-08-19T12:28:43;35.10;39.10
73586;DHT22;61865;50.232;18.614;2022-08-19T12:31:06;35.10;37.40
73586;DHT22;61865;50.232;18.614;2022-08-19T12:33:30;35.30;37.60
73586;DHT22;61865;50.232;18.614;2022-08-19T12:35:52;35.40;37.40
73586;DHT22;61865;50.232;18.614;2022-08-19T12:38:14;35.60;37.50
73586;DHT22;61865;50.232;18.614;2022-08-19T12:40:36;35.70;36.90
73586;DHT22;61865;50.232;18.614;2022-08-19T12:42:59;35.60;36.60
73586;DHT22;61865;50.232;18.614;2022-08-19T12:45:21;35.50;36.60
73586;DHT22;61865;50.232;18.614;2022-08-19T12:47:43;35.50;37.60
73586;DHT22;61865;50.232;18.614;2022-08-19T12:50:08;35.30;37.00
73586;DHT22;61865;50.232;18.614;2022-08-19T12:52:30;35.10;37.30
73586;DHT22;61865;50.232;18.614;2022-08-19T12:54:53;35.00;37.90
73586;DHT22;61865;50.232;18.614;2022-08-19T12:57:15;35.10;37.90
73586;DHT22;61865;50.232;18.614;2022-08-19T12:59:38;35.10;37.90
73586;DHT22;61865;50.232;18.614;2022-08-19T13:02:01;35.20;37.30
73586;DHT22;61865;50.232;18.614;2022-08-19T13:04:25;35.40;37.40
73586;DHT22;61865;50.232;18.614;2022-08-19T13:06:49;35.30;36.90
73586;DHT22;61865;50.232;18.614;2022-08-19T13:09:11;35.40;37.70
73586;DHT22;61865;50.232;18.614;2022-08-19T13:11:33;35.00;37.90
73586;DHT22;61865;50.232;18.614;2022-08-19T13:13:55;34.90;38.10
73586;DHT22;61865;50.232;18.614;2022-08-19T13:16:18;34.90;37.90
73586;DHT22;61865;50.232;18.614;2022-08-19T13:18:44;34.90;38.60
73586;DHT22;61865;50.232;18.614;2022-08-19T13:21:09;34.90;38.50
73586;DHT22;61865;50.232;18.614;2022-08-19T13:23:35;35.00;38.60
73586;DHT22;61865;50.232;18.614;2022-08-19T13:25:58;35.20;38.80
73586;DHT22;61865;50.232;18.614;2022-08-19T13:28:20;35.20;38.10
73586;DHT22;61865;50.232;18.614;2022-08-19T13:30:42;35.10;38.20
73586;DHT22;61865;50.232;18.614;2022-08-19T13:33:25;35.20;38.00
73586;DHT22;61865;50.232;18.614;2022-08-19T13:35:49;35.30;38.10
73586;DHT22;61865;50.232;18.614;2022-08-19T13:38:12;35.40;38.70
73586;DHT22;61865;50.232;18.614;2022-08-19T13:40:37;35.50;37.00
73586;DHT22;61865;50.232;18.614;2022-08-19T13:43:00;35.60;36.30
73586;DHT22;61865;50.232;18.614;2022-08-19T13:45:24;35.80;37.00
73586;DHT22;61865;50.232;18.614;2022-08-19T13:47:47;35.70;36.80
73586;DHT22;61865;50.232;18.614;2022-08-19T13:50:10;35.70;36.70
73586;DHT22;61865;50.232;18.614;2022-08-19T13:52:32;35.80;36.50
73586;DHT22;61865;50.232;18.614;2022-08-19T13:54:54;35.60;37.00
73586;DHT22;61865;50.232;18.614;2022-08-19T13:57:18;35.60;36.70
73586;DHT22;61865;50.232;18.614;2022-08-19T13:59:40;35.50;36.90
73586;DHT22;61865;50.232;18.614;2022-08-19T14:02:02;35.30;37.60
73586;DHT22;61865;50.232;18.614;2022-08-19T14:04:26;35.20;37.60
73586;DHT22;61865;50.232;18.614;2022-08-19T14:06:47;35.20;37.40
73586;DHT22;61865;50.232;18.614;2022-08-19T14:09:09;35.30;38.20
73586;DHT22;61865;50.232;18.614;2022-08-19T14:11:31;35.30;37.40
73586;DHT22;61865;50.232;18.614;2022-08-19T14:13:54;35.30;37.50
73586;DHT22;61865;50.232;18.614;2022-08-19T14:16:16;35.30;39.40
73586;DHT22;61865;50.232;18.614;2022-08-19T14:18:38;35.30;38.60
73586;DHT22;61865;50.232;18.614;2022-08-19T14:21:00;35.30;39.50
73586;DHT22;61865;50.232;18.614;2022-08-19T14:23:23;35.20;38.10
73586;DHT22;61865;50.232;18.614;2022-08-19T14:25:45;35.10;36.80
73586;DHT22;61865;50.232;18.614;2022-08-19T14:28:07;35.10;37.40
73586;DHT22;61865;50.232;18.614;2022-08-19T14:30:32;35.10;37.20
73586;DHT22;61865;50.232;18.614;2022-08-19T14:32:55;35.00;37.50
73586;DHT22;61865;50.232;18.614;2022-08-19T14:35:18;35.20;37.20
73586;DHT22;61865;50.232;18.614;2022-08-19T14:37:42;35.30;37.30
73586;DHT22;61865;50.232;18.614;2022-08-19T14:40:06;35.40;36.60
73586;DHT22;61865;50.232;18.614;2022-08-19T14:42:28;35.30;38.30
73586;DHT22;61865;50.232;18.614;2022-08-19T14:44:49;35.40;36.80
73586;DHT22;61865;50.232;18.614;2022-08-19T14:47:13;35.40;36.70
73586;DHT22;61865;50.232;18.614;2022-08-19T14:49:35;35.10;37.50
73586;DHT22;61865;50.232;18.614;2022-08-19T14:51:57;35.00;37.00